createdAt,value
2018-04-30T00:01:33.514Z,62.46
2018-04-30T00:04:09.873Z,62.90
2018-04-30T00:06:44.624Z,62.86
2018-04-30T00:09:18.758Z,62.76
2018-04-30T00:11:54.280Z,62.32
2018-04-30T00:14:28.651Z,62.61
2018-04-30T00:17:03.168Z,62.15
2018-04-30T00:19:38.296Z,61.98
2018-04-30T00:22:11.024Z,62.56
2018-04-30T00:24:48.267Z,62.52
2018-04-30T00:27:20.831Z,62.06
2018-04-30T00:29:59.103Z,62.62
2018-04-30T00:32:27.843Z,62.70
2018-04-30T00:34:57.375Z,62.42
2018-04-30T00:37:26.121Z,62.49
2018-04-30T00:39:56.181Z,62.49
2018-04-30T00:42:24.963Z,62.72
2018-04-30T00:44:54.434Z,62.30
2018-04-30T00:47:23.976Z,64.46
2018-04-30T00:49:52.709Z,64.36
2018-04-30T00:52:21.515Z,64.35
2018-04-30T00:55:00.085Z,63.93
2018-04-30T00:57:29.854Z,63.60
2018-04-30T00:59:58.619Z,63.93
2018-04-30T01:02:27.951Z,64.23
2018-04-30T01:04:56.818Z,65.18
2018-04-30T01:07:25.576Z,65.84
2018-04-30T01:09:54.320Z,65.09
2018-04-30T01:12:23.070Z,65.34
2018-04-30T01:14:51.784Z,64.54
2018-04-30T01:17:21.319Z,64.73
2018-04-30T01:19:50.869Z,64.42
2018-04-30T01:22:20.194Z,63.92
2018-04-30T01:24:49.002Z,63.15
2018-04-30T01:27:18.542Z,62.70
2018-04-30T01:29:48.057Z,63.46
2018-04-30T01:32:16.869Z,63.64
2018-04-30T01:34:45.721Z,63.37
2018-04-30T01:37:14.464Z,62.33
2018-04-30T01:39:43.229Z,62.25
2018-04-30T01:42:12.429Z,62.68
2018-04-30T01:44:42.479Z,62.80
2018-04-30T01:47:11.261Z,62.72
2018-04-30T01:49:42.012Z,62.64
2018-04-30T01:52:10.739Z,62.95
2018-04-30T01:54:40.844Z,62.34
2018-04-30T01:57:09.810Z,62.52
2018-04-30T01:59:38.605Z,63.59
2018-04-30T02:02:07.350Z,64.64
2018-04-30T02:04:36.085Z,64.70
2018-04-30T02:07:04.833Z,66.70
2018-04-30T02:09:33.581Z,66.47
2018-04-30T02:12:02.325Z,67.15
2018-04-30T02:14:31.834Z,68.53
2018-04-30T02:17:00.730Z,67.22
2018-04-30T02:19:29.446Z,65.86
2018-04-30T02:21:58.207Z,64.24
2018-04-30T02:24:26.966Z,64.14
2018-04-30T02:26:55.729Z,64.25
2018-04-30T02:29:24.500Z,66.16
2018-04-30T02:31:53.337Z,66.15
2018-04-30T02:34:23.225Z,65.41
2018-04-30T02:36:52.790Z,65.03
2018-04-30T02:39:21.590Z,64.38
2018-04-30T02:41:51.509Z,62.90
2018-04-30T02:44:20.258Z,63.04
2018-04-30T02:46:49.060Z,62.83
2018-04-30T02:49:17.813Z,63.51
2018-04-30T02:51:46.574Z,64.52
2018-04-30T02:54:15.392Z,65.10
2018-04-30T02:56:44.396Z,65.67
2018-04-30T02:59:13.209Z,65.54
2018-04-30T03:01:41.974Z,64.90
2018-04-30T03:04:10.801Z,64.56
2018-04-30T03:06:41.768Z,64.92
2018-04-30T03:09:11.260Z,64.21
2018-04-30T03:11:40.779Z,63.72
2018-04-30T03:14:09.520Z,63.68
2018-04-30T03:16:38.272Z,63.76
2018-04-30T03:19:08.130Z,63.25
2018-04-30T03:21:37.841Z,63.11
2018-04-30T03:24:07.394Z,63.15
2018-04-30T03:26:37.596Z,62.95
2018-04-30T03:29:07.143Z,63.16
2018-04-30T03:31:36.661Z,63.24
2018-04-30T03:34:05.409Z,63.51
2018-04-30T03:36:34.180Z,63.54
2018-04-30T03:39:03.001Z,63.13
2018-04-30T03:41:33.677Z,65.14
2018-04-30T03:44:02.777Z,65.36
2018-04-30T03:46:52.213Z,65.25
2018-04-30T03:49:21.922Z,64.54
2018-04-30T03:51:53.353Z,64.26
2018-04-30T03:54:23.739Z,65.57
2018-04-30T03:56:53.311Z,64.38
2018-04-30T03:59:23.762Z,64.02
2018-04-30T04:02:04.617Z,64.10
2018-04-30T04:04:46.456Z,63.46
2018-04-30T04:07:15.290Z,63.50
2018-04-30T04:09:44.796Z,62.89
2018-04-30T04:12:14.058Z,62.96
2018-04-30T04:14:44.177Z,63.53
2018-04-30T04:17:14.012Z,63.45
2018-04-30T04:19:42.775Z,62.77
2018-04-30T04:22:11.525Z,62.24
2018-04-30T04:24:40.313Z,62.14
2018-04-30T04:27:09.796Z,61.79
2018-04-30T04:29:39.332Z,62.33
2018-04-30T04:32:08.095Z,62.76
2018-04-30T04:34:36.825Z,61.58
2018-04-30T04:37:05.582Z,61.03
2018-04-30T04:39:35.099Z,60.56
2018-04-30T04:42:04.959Z,61.08
2018-04-30T04:44:33.683Z,60.91
2018-04-30T04:47:02.473Z,61.06
2018-04-30T04:49:31.210Z,60.43
2018-04-30T04:51:59.949Z,60.51
2018-04-30T04:54:30.617Z,60.00
2018-04-30T04:56:59.362Z,61.04
2018-04-30T04:59:29.031Z,60.37
2018-04-30T05:01:58.584Z,61.50
2018-04-30T05:04:27.341Z,62.00
2018-04-30T05:06:56.722Z,61.65
2018-04-30T05:09:25.793Z,60.86
2018-04-30T05:11:54.574Z,60.63
2018-04-30T05:14:24.164Z,60.38
2018-04-30T05:16:52.901Z,60.54
2018-04-30T05:19:21.637Z,61.57
2018-04-30T05:21:52.413Z,60.72
2018-04-30T05:24:22.394Z,60.08
2018-04-30T05:26:51.933Z,58.83
2018-04-30T05:29:21.234Z,58.46
2018-04-30T05:31:50.004Z,59.10
2018-04-30T05:34:18.766Z,58.87
2018-04-30T05:36:49.882Z,58.73
2018-04-30T05:39:18.697Z,58.21
2018-04-30T05:41:47.414Z,57.15
2018-04-30T05:44:16.154Z,57.20
2018-04-30T05:46:45.932Z,57.17
2018-04-30T05:49:15.504Z,54.51
2018-04-30T05:51:44.928Z,55.57
2018-04-30T05:54:13.683Z,57.28
2018-04-30T05:56:42.448Z,56.64
2018-04-30T05:59:11.990Z,56.99
2018-04-30T06:01:40.713Z,56.57
2018-04-30T06:04:09.541Z,55.93
2018-04-30T06:06:38.373Z,55.69
2018-04-30T06:09:07.206Z,55.62
2018-04-30T06:11:35.968Z,54.44
2018-04-30T06:14:04.750Z,54.52
2018-04-30T06:16:33.519Z,54.44
2018-04-30T06:19:03.138Z,54.65
2018-04-30T06:21:31.898Z,53.53
2018-04-30T06:24:00.690Z,52.01
2018-04-30T06:26:29.431Z,52.41
2018-04-30T06:28:58.205Z,52.51
2018-04-30T06:31:26.985Z,51.29
2018-04-30T06:33:56.617Z,51.21
2018-04-30T06:36:25.325Z,51.05
2018-04-30T06:38:54.174Z,52.38
2018-04-30T06:41:22.940Z,51.82
2018-04-30T06:43:51.672Z,52.34
2018-04-30T06:46:20.483Z,51.33
2018-04-30T06:48:49.230Z,50.13
2018-04-30T06:51:18.002Z,50.67
2018-04-30T06:53:47.558Z,50.86
2018-04-30T06:56:16.317Z,49.70
2018-04-30T06:58:51.740Z,49.24
2018-04-30T07:01:21.254Z,48.38
2018-04-30T07:03:50.764Z,48.78
2018-04-30T07:06:19.500Z,47.17
2018-04-30T07:08:50.021Z,45.45
2018-04-30T07:11:18.766Z,46.86
2018-04-30T07:13:47.514Z,45.66
2018-04-30T07:16:16.377Z,45.24
2018-04-30T07:18:45.701Z,43.11
2018-04-30T07:21:14.473Z,42.94
2018-04-30T07:23:43.259Z,42.59
2018-04-30T07:26:12.017Z,41.48
2018-04-30T07:28:40.794Z,43.47
2018-04-30T07:31:09.573Z,44.33
2018-04-30T07:33:39.097Z,41.95
2018-04-30T07:36:07.846Z,41.25
2018-04-30T07:38:36.702Z,41.70
2018-04-30T07:41:05.494Z,43.61
2018-04-30T07:43:34.553Z,42.88
2018-04-30T07:46:03.922Z,43.76
2018-04-30T07:48:32.700Z,41.38
2018-04-30T07:51:01.436Z,39.49
2018-04-30T07:53:30.209Z,41.79
2018-04-30T07:55:59.045Z,42.08
2018-04-30T07:58:27.777Z,40.60
2018-04-30T08:00:56.546Z,42.33
2018-04-30T08:03:25.283Z,40.96
2018-04-30T08:05:54.066Z,39.36
2018-04-30T08:08:23.325Z,39.13
2018-04-30T08:10:52.125Z,39.76
2018-04-30T08:13:21.075Z,39.24
2018-04-30T08:15:49.833Z,39.37
2018-04-30T08:18:19.351Z,38.14
2018-04-30T08:20:48.125Z,38.17
2018-04-30T08:23:16.842Z,37.49
2018-04-30T08:25:46.168Z,35.91
2018-04-30T08:28:16.773Z,36.10
2018-04-30T08:30:46.203Z,36.41
2018-04-30T08:33:14.947Z,35.87
2018-04-30T08:35:44.515Z,35.28
2018-04-30T08:38:13.193Z,35.35
2018-04-30T08:40:42.749Z,36.22
2018-04-30T08:43:11.529Z,34.54
2018-04-30T08:45:41.048Z,34.75
2018-04-30T08:48:10.587Z,36.08
2018-04-30T08:50:39.377Z,35.18
2018-04-30T08:53:08.213Z,35.06
2018-04-30T08:55:37.011Z,37.21
2018-04-30T08:58:06.582Z,34.47
2018-04-30T09:00:35.982Z,34.95
2018-04-30T09:03:04.742Z,35.42
2018-04-30T09:05:33.636Z,34.45
2018-04-30T09:08:02.409Z,35.60
2018-04-30T09:10:31.896Z,35.94
2018-04-30T09:13:01.426Z,34.56
2018-04-30T09:15:30.247Z,33.95
2018-04-30T09:17:59.001Z,34.78
2018-04-30T09:20:27.800Z,34.13
2018-04-30T09:22:56.569Z,35.00
2018-04-30T09:25:25.364Z,35.51
2018-04-30T09:27:54.928Z,33.70
2018-04-30T09:30:23.684Z,33.93
2018-04-30T09:32:52.422Z,35.97
2018-04-30T09:35:21.941Z,34.73
2018-04-30T09:37:51.528Z,33.67
2018-04-30T09:40:20.265Z,33.80
2018-04-30T09:42:49.115Z,32.86
2018-04-30T09:45:17.888Z,32.10
2018-04-30T09:47:46.865Z,34.00
2018-04-30T09:50:16.724Z,32.94
2018-04-30T09:52:47.352Z,33.10
2018-04-30T09:55:16.629Z,33.41
2018-04-30T09:57:45.467Z,32.31
2018-04-30T10:00:14.969Z,31.47
2018-04-30T10:02:43.745Z,31.81
2018-04-30T10:05:12.517Z,33.87
2018-04-30T10:07:41.262Z,33.86
2018-04-30T10:10:10.067Z,32.79
2018-04-30T10:12:38.845Z,30.37
2018-04-30T10:15:07.634Z,31.77
2018-04-30T10:17:36.539Z,33.37
2018-04-30T10:20:05.448Z,32.49
2018-04-30T10:22:35.235Z,31.87
2018-04-30T10:25:04.013Z,31.48
2018-04-30T10:27:32.945Z,30.46
2018-04-30T10:30:01.758Z,30.52
2018-04-30T10:32:31.434Z,33.31
2018-04-30T10:35:00.211Z,33.86
2018-04-30T10:37:29.002Z,32.10
2018-04-30T10:39:57.733Z,32.37
2018-04-30T10:42:26.860Z,30.80
2018-04-30T10:44:57.296Z,32.31
2018-04-30T10:47:26.047Z,28.86
2018-04-30T10:49:55.596Z,32.00
2018-04-30T10:52:24.449Z,30.27
2018-04-30T10:54:53.724Z,29.39
2018-04-30T10:57:22.497Z,30.64
2018-04-30T10:59:52.503Z,29.98
2018-04-30T11:02:21.383Z,30.64
2018-04-30T11:04:51.342Z,32.83
2018-04-30T11:07:20.122Z,30.96
2018-04-30T11:09:48.860Z,31.65
2018-04-30T11:12:17.709Z,31.74
2018-04-30T11:14:47.164Z,32.48
2018-04-30T11:17:17.871Z,31.01
2018-04-30T11:19:47.123Z,31.20
2018-04-30T11:22:16.267Z,31.90
2018-04-30T11:24:45.846Z,32.36
2018-04-30T11:27:15.177Z,31.35
2018-04-30T11:29:44.704Z,32.93
2018-04-30T11:32:13.473Z,31.14
2018-04-30T11:34:42.779Z,31.93
2018-04-30T11:37:11.638Z,32.55
2018-04-30T11:39:40.405Z,31.99
2018-04-30T11:42:09.179Z,32.23
2018-04-30T11:44:40.502Z,34.42
2018-04-30T11:47:09.318Z,31.18
2018-04-30T11:49:38.001Z,32.65
2018-04-30T11:52:07.109Z,30.85
2018-04-30T11:54:35.883Z,29.88
2018-04-30T11:57:04.645Z,30.11
2018-04-30T11:59:33.432Z,32.10
2018-04-30T12:02:02.674Z,32.25
2018-04-30T12:04:31.446Z,29.77
2018-04-30T12:07:00.261Z,30.93
2018-04-30T12:09:29.014Z,31.59
2018-04-30T12:11:57.772Z,30.11
2018-04-30T12:14:26.527Z,29.32
2018-04-30T12:16:55.592Z,28.85
2018-04-30T12:19:25.388Z,29.20
2018-04-30T12:21:54.163Z,31.64
2018-04-30T12:24:22.864Z,28.33
2018-04-30T12:27:07.640Z,29.16
2018-04-30T12:29:36.433Z,27.70
2018-04-30T12:32:12.641Z,27.36
2018-04-30T12:34:42.045Z,30.07
2018-04-30T12:37:10.852Z,28.63
2018-04-30T12:40:18.742Z,27.66
2018-04-30T12:42:51.182Z,28.12
2018-04-30T12:45:20.577Z,27.40
2018-04-30T12:47:49.329Z,28.01
2018-04-30T12:50:18.103Z,27.87
2018-04-30T12:52:47.624Z,27.47
2018-04-30T12:55:18.309Z,26.80
2018-04-30T12:57:49.629Z,28.31
2018-04-30T13:00:18.443Z,27.77
2018-04-30T13:02:47.642Z,26.59
2018-04-30T13:05:16.509Z,25.33
2018-04-30T13:07:45.373Z,26.25
2018-04-30T13:10:14.155Z,25.22
2018-04-30T13:12:43.724Z,25.92
2018-04-30T13:15:12.456Z,25.95
2018-04-30T13:17:41.245Z,23.58
2018-04-30T13:20:10.810Z,25.33
2018-04-30T13:22:39.625Z,23.53
2018-04-30T13:25:08.356Z,24.30
2018-04-30T13:27:37.173Z,24.70
2018-04-30T13:30:05.928Z,25.48
2018-04-30T13:32:35.437Z,25.29
2018-04-30T13:35:05.415Z,25.24
2018-04-30T13:37:34.236Z,26.43
2018-04-30T13:40:02.998Z,25.86
2018-04-30T13:42:31.740Z,25.74
2018-04-30T13:45:00.485Z,26.53
2018-04-30T13:47:31.421Z,27.05
2018-04-30T13:50:01.037Z,27.00
2018-04-30T13:52:29.818Z,26.68
2018-04-30T13:55:01.120Z,26.90
2018-04-30T13:57:31.121Z,25.08
2018-04-30T13:59:59.905Z,25.22
2018-04-30T14:02:28.679Z,24.99
2018-04-30T14:04:58.192Z,26.39
2018-04-30T14:07:26.938Z,26.02
2018-04-30T14:09:55.710Z,25.54
2018-04-30T14:12:24.450Z,24.88
2018-04-30T14:14:53.203Z,25.90
2018-04-30T14:17:21.932Z,26.18
2018-04-30T14:19:51.363Z,26.18
2018-04-30T14:22:21.256Z,28.20
2018-04-30T14:24:50.786Z,27.81
2018-04-30T14:27:19.669Z,27.49
2018-04-30T14:29:49.168Z,27.71
2018-04-30T14:32:18.243Z,27.62
2018-04-30T14:34:48.985Z,28.09
2018-04-30T14:37:19.082Z,28.81
2018-04-30T14:39:48.260Z,28.61
2018-04-30T14:42:18.387Z,27.79
2018-04-30T14:44:47.625Z,29.29
2018-04-30T14:47:17.090Z,29.11
2018-04-30T14:49:45.895Z,29.29
2018-04-30T14:52:15.704Z,27.96
2018-04-30T14:54:45.225Z,27.85
2018-04-30T14:57:14.736Z,29.24
2018-04-30T14:59:43.495Z,28.46
2018-04-30T15:02:12.922Z,28.70
2018-04-30T15:04:42.599Z,27.51
2018-04-30T15:07:13.560Z,28.16
2018-04-30T15:09:42.282Z,28.51
2018-04-30T15:12:11.125Z,29.16
2018-04-30T15:14:40.562Z,26.44
2018-04-30T15:17:09.298Z,26.73
2018-04-30T15:19:38.107Z,26.89
2018-04-30T15:22:06.995Z,27.52
2018-04-30T15:24:35.761Z,27.51
2018-04-30T15:27:04.519Z,27.70
2018-04-30T15:29:33.311Z,27.20
2018-04-30T15:32:02.042Z,27.17
2018-04-30T15:34:33.453Z,26.96
2018-04-30T15:37:02.278Z,26.38
2018-04-30T15:39:31.030Z,25.95
2018-04-30T15:41:59.797Z,26.84
2018-04-30T15:44:30.078Z,26.37
2018-04-30T15:46:59.408Z,26.94
2018-04-30T15:49:28.148Z,26.28
2018-04-30T15:51:56.915Z,26.17
2018-04-30T15:54:25.817Z,24.56
2018-04-30T15:56:54.545Z,26.19
2018-04-30T15:59:23.400Z,25.08
2018-04-30T16:01:53.102Z,25.36
2018-04-30T16:04:21.887Z,25.17
2018-04-30T16:06:50.632Z,25.61
2018-04-30T16:09:20.161Z,25.01
2018-04-30T16:11:48.907Z,24.49
2018-04-30T16:14:18.807Z,24.95
2018-04-30T16:16:49.122Z,24.05
2018-04-30T16:19:19.599Z,25.57
2018-04-30T16:21:48.763Z,25.67
2018-04-30T16:24:17.537Z,24.93
2018-04-30T16:26:47.327Z,23.52
2018-04-30T16:29:16.099Z,24.76
2018-04-30T16:31:45.157Z,23.87
2018-04-30T16:34:14.027Z,24.92
2018-04-30T16:36:42.713Z,24.75
2018-04-30T16:39:12.793Z,23.76
2018-04-30T16:41:41.629Z,24.41
2018-04-30T16:44:10.384Z,24.11
2018-04-30T16:46:39.476Z,20.23
2018-04-30T16:49:09.115Z,19.53
2018-04-30T16:51:38.297Z,20.30
2018-04-30T16:54:07.108Z,20.28
2018-04-30T16:56:35.889Z,18.17
2018-04-30T16:59:05.929Z,17.00
2018-04-30T17:01:35.859Z,16.97
2018-04-30T17:04:04.910Z,17.40
2018-04-30T17:06:33.628Z,17.80
2018-04-30T17:09:02.394Z,18.01
2018-04-30T17:11:31.121Z,18.26
2018-04-30T17:14:00.628Z,18.77
2018-04-30T17:16:29.419Z,20.77
2018-04-30T17:18:58.580Z,21.10
